createdAt,value
2023-05-05T00:00:03.250Z,98828.63
2023-05-05T00:02:30.724Z,98828.65
2023-05-05T00:04:34.812Z,98826.05
2023-05-05T00:06:43.298Z,98824.27
2023-05-05T00:08:47.249Z,98824.55
2023-05-05T00:10:58.214Z,98827.98
2023-05-05T00:13:05.971Z,98825.41
2023-05-05T00:15:15.706Z,98822.20
2023-05-05T00:17:24.431Z,98824.02
2023-05-05T00:19:30.012Z,98821.77
2023-05-05T00:21:37.076Z,98821.36
2023-05-05T00:23:42.218Z,98822.02
2023-05-05T00:25:45.395Z,98820.71
2023-05-05T00:27:52.377Z,98820.77
2023-05-05T00:29:55.868Z,98822.04
2023-05-05T00:31:59.499Z,98826.34
2023-05-05T00:34:06.289Z,98830.64
2023-05-05T00:36:11.093Z,98833.88
2023-05-05T00:38:16.000Z,98834.44
2023-05-05T00:40:20.324Z,98836.09
2023-05-05T00:42:23.942Z,98835.64
2023-05-05T00:44:41.569Z,98829.73
2023-05-05T00:46:47.299Z,98831.13
2023-05-05T00:48:51.760Z,98826.39
2023-05-05T00:50:58.348Z,98820.29
2023-05-05T00:53:06.746Z,98819.95
2023-05-05T00:55:13.660Z,98812.53
2023-05-05T00:57:19.287Z,98809.91
2023-05-05T00:59:23.407Z,98807.33
2023-05-05T01:01:26.409Z,98806.38
2023-05-05T01:03:32.897Z,98805.89
2023-05-05T01:06:10.376Z,98806.13
2023-05-05T01:08:54.884Z,98804.81
2023-05-05T01:11:11.534Z,98803.58
2023-05-05T01:13:24.149Z,98803.30
2023-05-05T01:15:46.380Z,98801.60
2023-05-05T01:18:26.011Z,98803.65
2023-05-05T01:20:53.433Z,98806.38
2023-05-05T01:23:05.902Z,98805.77
2023-05-05T01:25:28.038Z,98804.00
2023-05-05T01:27:56.092Z,98803.65
2023-05-05T01:30:20.286Z,98801.61
2023-05-05T01:32:32.068Z,98801.66
2023-05-05T01:35:01.175Z,98800.69
2023-05-05T01:37:19.814Z,98802.84
2023-05-05T01:39:28.336Z,98800.44
2023-05-05T01:41:46.506Z,98797.36
2023-05-05T01:43:53.153Z,98794.77
2023-05-05T01:45:57.712Z,98792.20
2023-05-05T01:48:02.776Z,98798.66
2023-05-05T01:50:08.664Z,98798.23
2023-05-05T01:52:14.002Z,98794.86
2023-05-05T01:54:19.285Z,98795.09
2023-05-05T01:56:24.102Z,98795.83
2023-05-05T01:58:32.063Z,98800.48
2023-05-05T02:00:50.238Z,98796.84
2023-05-05T02:02:57.502Z,98797.48
2023-05-05T02:05:06.460Z,98798.77
2023-05-05T02:07:12.647Z,98797.65
2023-05-05T02:09:17.803Z,98797.36
2023-05-05T02:11:22.512Z,98800.17
2023-05-05T02:13:33.079Z,98798.88
2023-05-05T02:15:39.816Z,98798.98
2023-05-05T02:17:53.859Z,98806.48
2023-05-05T02:20:01.080Z,98806.02
2023-05-05T02:22:04.405Z,98807.10
2023-05-05T02:24:09.714Z,98801.65
2023-05-05T02:26:17.730Z,98799.15
2023-05-05T02:28:28.110Z,98796.19
2023-05-05T02:30:38.059Z,98793.73
2023-05-05T02:32:51.324Z,98794.83
2023-05-05T02:34:57.485Z,98794.40
2023-05-05T02:37:05.415Z,98792.73
2023-05-05T02:39:23.227Z,98795.44
2023-05-05T02:41:29.698Z,98793.04
2023-05-05T02:43:35.191Z,98790.14
2023-05-05T02:45:41.587Z,98787.71
2023-05-05T02:47:48.724Z,98783.33
2023-05-05T02:49:52.410Z,98785.16
2023-05-05T02:52:03.067Z,98784.00
2023-05-05T02:54:11.654Z,98782.89
2023-05-05T02:56:38.540Z,98781.36
2023-05-05T02:58:51.398Z,98783.21
2023-05-05T03:01:28.052Z,98783.50
2023-05-05T03:03:44.823Z,98783.41
2023-05-05T03:06:03.029Z,98785.36
2023-05-05T03:08:15.980Z,98781.38
2023-05-05T03:10:24.334Z,98782.14
2023-05-05T03:12:37.696Z,98781.02
2023-05-05T03:17:21.192Z,98778.55
2023-05-05T03:19:30.579Z,98777.16
2023-05-05T03:21:37.981Z,98771.66
2023-05-05T03:23:41.870Z,98772.14
2023-05-05T03:25:50.753Z,98775.67
2023-05-05T03:28:07.920Z,98771.58
2023-05-05T03:30:11.985Z,98770.10
2023-05-05T03:32:24.458Z,98770.58
2023-05-05T03:34:30.769Z,98772.23
2023-05-05T03:36:38.464Z,98777.36
2023-05-05T03:38:44.666Z,98774.71
2023-05-05T03:40:52.399Z,98771.59
2023-05-05T03:43:00.979Z,98767.60
2023-05-05T03:45:05.240Z,98764.27
2023-05-05T03:47:13.134Z,98766.91
2023-05-05T03:49:16.329Z,98767.77
2023-05-05T03:51:22.071Z,98775.67
2023-05-05T03:53:27.539Z,98779.52
2023-05-05T03:55:33.134Z,98775.20
2023-05-05T03:57:39.089Z,98771.95
2023-05-05T03:59:43.767Z,98767.70
2023-05-05T04:01:58.517Z,98775.52
2023-05-05T04:04:04.895Z,98783.81
2023-05-05T04:06:08.147Z,98782.21
2023-05-05T04:08:11.709Z,98774.06
2023-05-05T04:10:16.261Z,98766.13
2023-05-05T04:12:19.110Z,98762.45
2023-05-05T04:14:25.327Z,98763.25
2023-05-05T04:16:33.582Z,98765.86
2023-05-05T04:18:37.005Z,98772.65
2023-05-05T04:20:41.707Z,98765.70
2023-05-05T04:22:46.187Z,98766.48
2023-05-05T04:24:52.255Z,98767.09
2023-05-05T04:26:59.166Z,98767.21
2023-05-05T04:29:07.810Z,98767.65
2023-05-05T04:31:18.463Z,98773.12
2023-05-05T04:33:23.536Z,98772.84
2023-05-05T04:35:30.216Z,98778.92
2023-05-05T04:37:34.951Z,98781.89
2023-05-05T04:39:38.105Z,98784.64
2023-05-05T04:41:41.132Z,98785.95
2023-05-05T04:43:44.969Z,98788.05
2023-05-05T04:45:55.919Z,98792.72
2023-05-05T04:48:05.225Z,98792.64
2023-05-05T04:50:11.567Z,98794.66
2023-05-05T04:52:14.517Z,98791.48
2023-05-05T04:54:19.111Z,98795.27
2023-05-05T04:56:26.597Z,98799.68
2023-05-05T04:58:30.653Z,98801.63
2023-05-05T05:00:37.475Z,98799.85
2023-05-05T05:02:47.588Z,98799.19
2023-05-05T05:04:51.797Z,98801.33
2023-05-05T05:07:03.519Z,98800.15
2023-05-05T05:09:08.772Z,98805.09
2023-05-05T05:11:18.971Z,98799.75
2023-05-05T05:13:23.615Z,98802.11
2023-05-05T05:15:27.128Z,98805.52
2023-05-05T05:17:30.646Z,98805.30
2023-05-05T05:19:40.196Z,98812.23
2023-05-05T05:21:49.110Z,98808.58
2023-05-05T05:23:52.262Z,98811.64
2023-05-05T05:25:56.506Z,98806.48
2023-05-05T05:28:09.473Z,98811.56
2023-05-05T05:30:19.234Z,98816.86
2023-05-05T05:32:22.785Z,98815.06
2023-05-05T05:34:27.336Z,98818.80
2023-05-05T05:36:32.195Z,98816.77
2023-05-05T05:38:39.615Z,98817.42
2023-05-05T05:40:44.546Z,98818.44
2023-05-05T05:42:51.683Z,98817.83
2023-05-05T05:44:57.840Z,98820.79
2023-05-05T05:47:00.722Z,98822.48
2023-05-05T05:49:06.479Z,98818.25
2023-05-05T05:51:10.177Z,98821.12
2023-05-05T05:53:16.745Z,98817.42
2023-05-05T05:55:25.389Z,98820.58
2023-05-05T05:57:29.284Z,98824.31
2023-05-05T05:59:40.821Z,98823.11
2023-05-05T06:01:44.027Z,98821.88
2023-05-05T06:03:48.120Z,98823.14
2023-05-05T06:05:53.981Z,98820.86
2023-05-05T06:07:58.448Z,98825.46
2023-05-05T06:10:14.350Z,98826.83
2023-05-05T06:12:18.721Z,98822.66
2023-05-05T06:14:30.338Z,98822.81
2023-05-05T06:16:41.435Z,98823.20
2023-05-05T06:18:49.958Z,98820.61
2023-05-05T06:20:54.523Z,98822.63
2023-05-05T06:23:03.027Z,98820.58
2023-05-05T06:25:08.145Z,98820.81
2023-05-05T06:27:14.049Z,98823.40
2023-05-05T06:29:18.395Z,98820.48
2023-05-05T06:31:28.988Z,98816.45
2023-05-05T06:33:34.682Z,98818.55
2023-05-05T06:35:39.768Z,98815.36
2023-05-05T06:37:43.554Z,98814.71
2023-05-05T06:39:46.724Z,98812.97
2023-05-05T06:41:52.062Z,98812.37
2023-05-05T06:43:56.289Z,98815.94
2023-05-05T06:46:00.101Z,98812.01
2023-05-05T06:48:06.191Z,98813.99
2023-05-05T06:50:12.477Z,98814.51
2023-05-05T06:52:16.834Z,98816.57
2023-05-05T06:54:21.687Z,98816.00
2023-05-05T06:56:25.063Z,98817.08
2023-05-05T06:58:28.523Z,98816.23
2023-05-05T07:00:32.708Z,98813.52
2023-05-05T07:02:39.010Z,98808.50
2023-05-05T07:04:44.642Z,98813.27
2023-05-05T07:06:48.214Z,98809.66
2023-05-05T07:08:52.112Z,98812.45
2023-05-05T07:10:55.704Z,98811.67
2023-05-05T07:12:59.226Z,98811.37
2023-05-05T07:15:15.545Z,98811.92
2023-05-05T07:17:23.597Z,98809.86
2023-05-05T07:19:29.342Z,98808.25
2023-05-05T07:21:37.869Z,98803.76
2023-05-05T07:23:44.464Z,98803.71
2023-05-05T07:25:49.970Z,98800.56
2023-05-05T07:27:59.001Z,98799.06
2023-05-05T07:30:04.048Z,98806.52
2023-05-05T07:32:14.107Z,98807.58
2023-05-05T07:34:23.953Z,98806.61
2023-05-05T07:36:31.936Z,98805.49
2023-05-05T07:38:37.080Z,98804.20
2023-05-05T07:40:42.596Z,98796.41
2023-05-05T07:42:51.256Z,98797.71
2023-05-05T07:45:07.662Z,98798.41
2023-05-05T07:47:11.247Z,98798.42
2023-05-05T07:49:20.033Z,98798.58
2023-05-05T07:51:32.534Z,98793.57
2023-05-05T07:53:37.503Z,98796.95
2023-05-05T07:55:41.493Z,98793.77
2023-05-05T07:57:48.041Z,98791.04
2023-05-05T07:59:53.623Z,98794.73
2023-05-05T08:02:06.978Z,98792.35
2023-05-05T08:04:10.202Z,98793.13
2023-05-05T08:06:16.094Z,98793.71
2023-05-05T08:08:21.187Z,98789.89
2023-05-05T08:10:31.699Z,98789.23
2023-05-05T08:12:37.780Z,98787.34
2023-05-05T08:14:46.766Z,98785.23
2023-05-05T08:16:52.061Z,98787.67
2023-05-05T08:18:55.484Z,98791.01
2023-05-05T08:20:58.854Z,98788.59
2023-05-05T08:23:03.661Z,98788.70
2023-05-05T08:25:08.706Z,98790.75
2023-05-05T08:27:11.575Z,98787.80
2023-05-05T08:29:15.089Z,98788.27
2023-05-05T08:31:20.423Z,98785.17
2023-05-05T08:33:24.098Z,98786.58
2023-05-05T08:35:30.400Z,98793.55
2023-05-05T08:39:52.329Z,98789.44
2023-05-05T08:42:06.972Z,98791.05
2023-05-05T08:44:13.503Z,98788.10
2023-05-05T08:46:18.005Z,98788.79
2023-05-05T08:48:25.470Z,98792.61
2023-05-05T08:50:33.314Z,98788.19
2023-05-05T08:52:44.517Z,98787.17
2023-05-05T08:55:03.299Z,98788.94
2023-05-05T08:57:09.934Z,98790.52
2023-05-05T08:59:14.842Z,98796.59
2023-05-05T09:01:20.967Z,98796.53
2023-05-05T09:03:27.080Z,98801.66
2023-05-05T09:05:31.190Z,98798.71
2023-05-05T09:07:39.751Z,98799.28
2023-05-05T09:09:50.548Z,98797.45
2023-05-05T09:11:55.018Z,98799.60
2023-05-05T09:14:06.826Z,98802.79
2023-05-05T09:16:13.709Z,98792.23
2023-05-05T09:18:19.646Z,98795.05
2023-05-05T09:20:22.493Z,98794.02
2023-05-05T09:22:34.784Z,98796.54
2023-05-05T09:24:38.156Z,98792.95
2023-05-05T09:26:45.280Z,98791.76
2023-05-05T09:28:54.402Z,98788.98
2023-05-05T09:31:16.659Z,98788.94
2023-05-05T09:33:31.138Z,98786.06
2023-05-05T09:36:03.344Z,98778.52
2023-05-05T09:38:14.254Z,98777.50
2023-05-05T09:40:21.392Z,98774.85
2023-05-05T09:42:24.286Z,98776.27
2023-05-05T09:44:35.156Z,98774.00
2023-05-05T09:46:51.143Z,98776.65
2023-05-05T09:48:54.226Z,98775.90
2023-05-05T09:50:59.029Z,98772.91
2023-05-05T09:53:08.525Z,98768.22
2023-05-05T09:55:18.508Z,98768.35
2023-05-05T09:57:37.582Z,98767.35
2023-05-05T09:59:55.217Z,98768.99
2023-05-05T10:02:16.842Z,98767.80
2023-05-05T10:04:31.068Z,98770.10
2023-05-05T10:06:49.101Z,98772.64
2023-05-05T10:09:05.724Z,98772.30
2023-05-05T10:11:08.904Z,98772.66
2023-05-05T10:13:19.024Z,98767.13
2023-05-05T10:15:22.707Z,98771.30
2023-05-05T10:17:31.126Z,98770.66
2023-05-05T10:19:36.080Z,98768.71
2023-05-05T10:21:42.201Z,98760.89
2023-05-05T10:23:50.761Z,98759.88
2023-05-05T10:25:59.463Z,98760.23
2023-05-05T10:28:07.891Z,98753.40
2023-05-05T10:30:22.927Z,98750.69
2023-05-05T10:32:56.972Z,98743.27
2023-05-05T10:35:03.143Z,98738.43
2023-05-05T10:37:07.754Z,98737.91
2023-05-05T10:39:16.322Z,98736.27
2023-05-05T10:41:22.582Z,98733.30
2023-05-05T10:43:25.938Z,98729.21
2023-05-05T10:45:36.639Z,98724.42
2023-05-05T10:47:40.708Z,98723.13
2023-05-05T10:49:59.394Z,98725.45
2023-05-05T10:52:28.438Z,98724.04
2023-05-05T10:54:44.473Z,98714.02
2023-05-05T10:56:51.645Z,98716.17
2023-05-05T10:59:00.192Z,98716.88
2023-05-05T11:01:05.830Z,98717.73
2023-05-05T11:03:18.463Z,98714.15
2023-05-05T11:05:31.519Z,98716.48
2023-05-05T11:07:35.392Z,98715.63
2023-05-05T11:10:06.657Z,98712.41
2023-05-05T11:12:14.619Z,98709.11
2023-05-05T11:14:24.324Z,98703.98
2023-05-05T11:16:50.661Z,98699.25
2023-05-05T11:18:55.121Z,98697.27
2023-05-05T11:20:57.949Z,98693.30
2023-05-05T11:23:17.769Z,98690.25
2023-05-05T11:25:37.207Z,98689.92
2023-05-05T11:28:13.531Z,98691.39
2023-05-05T11:30:18.043Z,98686.23
2023-05-05T11:32:21.187Z,98680.47
2023-05-05T11:34:29.385Z,98682.31
2023-05-05T11:36:45.390Z,98679.30
2023-05-05T11:38:57.625Z,98675.84
2023-05-05T11:41:25.366Z,98673.61
2023-05-05T11:43:28.012Z,98672.69
2023-05-05T11:45:31.110Z,98672.17
2023-05-05T11:47:34.843Z,98670.80
2023-05-05T11:49:40.625Z,98669.64
2023-05-05T11:51:44.030Z,98669.35
2023-05-05T11:53:48.181Z,98666.46
2023-05-05T11:56:09.426Z,98666.54
2023-05-05T11:58:28.957Z,98662.88
2023-05-05T12:00:35.061Z,98657.61
2023-05-05T12:02:38.011Z,98653.61
2023-05-05T12:04:43.425Z,98649.43
2023-05-05T12:06:51.555Z,98645.80
2023-05-05T12:08:56.436Z,98644.19
2023-05-05T12:11:03.763Z,98643.78
2023-05-05T12:13:21.868Z,98645.55
2023-05-05T12:15:30.344Z,98641.90
2023-05-05T12:17:43.145Z,98640.22
2023-05-05T12:20:15.154Z,98635.38
2023-05-05T12:22:19.642Z,98638.98
2023-05-05T12:24:23.416Z,98638.27
2023-05-05T12:26:32.161Z,98630.35
2023-05-05T12:28:49.749Z,98624.05
2023-05-05T12:31:02.095Z,98617.81
2023-05-05T12:33:08.336Z,98618.83
2023-05-05T12:35:16.151Z,98615.08
2023-05-05T12:37:33.285Z,98613.60
2023-05-05T12:39:41.732Z,98612.42
2023-05-05T12:41:48.364Z,98615.88
2023-05-05T12:43:56.906Z,98611.27
2023-05-05T12:46:08.980Z,98611.29
2023-05-05T12:48:23.125Z,98608.49
2023-05-05T12:50:34.128Z,98608.31
2023-05-05T12:52:46.996Z,98606.31
2023-05-05T12:55:01.530Z,98605.20
2023-05-05T12:57:13.894Z,98608.14
2023-05-05T12:59:23.491Z,98606.77
2023-05-05T13:01:27.075Z,98609.14
2023-05-05T13:03:31.435Z,98609.41
2023-05-05T13:05:42.976Z,98608.23
2023-05-05T13:07:54.581Z,98608.88
2023-05-05T13:10:16.264Z,98605.30
2023-05-05T13:12:22.192Z,98602.65
2023-05-05T13:14:31.667Z,98602.39
2023-05-05T13:16:36.032Z,98600.30
2023-05-05T13:18:54.685Z,98599.98
2023-05-05T13:21:01.497Z,98598.40
2023-05-05T13:23:12.578Z,98594.70
2023-05-05T13:25:15.949Z,98594.48
2023-05-05T13:27:24.242Z,98588.52
2023-05-05T13:29:41.683Z,98591.10
2023-05-05T13:31:45.561Z,98586.38
2023-05-05T13:33:49.381Z,98582.42
2023-05-05T13:35:53.959Z,98583.36
2023-05-05T13:37:58.145Z,98575.84
2023-05-05T13:40:12.763Z,98571.36
2023-05-05T13:42:50.487Z,98568.58
2023-05-05T13:44:54.403Z,98569.77
2023-05-05T13:46:57.710Z,98567.08
2023-05-05T13:49:01.860Z,98564.97
2023-05-05T13:51:09.096Z,98561.13
2023-05-05T13:53:12.408Z,98560.31
2023-05-05T13:55:16.185Z,98557.98
2023-05-05T13:57:21.625Z,98554.77
2023-05-05T13:59:28.451Z,98556.20
2023-05-05T14:01:36.034Z,98555.02
2023-05-05T14:03:41.840Z,98554.92
2023-05-05T14:05:46.202Z,98553.98
2023-05-05T14:07:57.861Z,98554.98
2023-05-05T14:10:03.901Z,98553.89
2023-05-05T14:12:07.002Z,98556.19
2023-05-05T14:14:12.105Z,98560.38
2023-05-05T14:16:16.249Z,98560.75
2023-05-05T14:18:21.295Z,98560.13
2023-05-05T14:20:28.812Z,98562.11
2023-05-05T14:22:39.132Z,98566.62
2023-05-05T14:24:45.217Z,98563.07
2023-05-05T14:26:49.408Z,98561.73
2023-05-05T14:29:12.244Z,98564.52
2023-05-05T14:31:15.907Z,98564.35
2023-05-05T14:33:24.023Z,98564.48
2023-05-05T14:35:30.135Z,98561.61
2023-05-05T14:37:36.660Z,98563.45
2023-05-05T14:39:40.622Z,98566.48
2023-05-05T14:41:52.929Z,98570.05
2023-05-05T14:43:57.366Z,98569.66
2023-05-05T14:46:02.766Z,98562.14
2023-05-05T14:48:09.642Z,98558.69
2023-05-05T14:50:14.406Z,98554.79
2023-05-05T14:52:19.285Z,98554.68
2023-05-05T14:54:29.604Z,98560.58
2023-05-05T14:56:51.768Z,98566.30
2023-05-05T14:58:59.240Z,98564.05
2023-05-05T15:01:07.814Z,98567.98
2023-05-05T15:03:13.110Z,98580.36
2023-05-05T15:05:19.581Z,98591.69
2023-05-05T15:07:28.695Z,98595.41
2023-05-05T15:09:35.622Z,98603.55
2023-05-05T15:11:47.583Z,98609.14
2023-05-05T15:13:58.340Z,98614.94
2023-05-05T15:16:01.700Z,98608.55
2023-05-05T15:18:07.651Z,98612.30
2023-05-05T15:20:13.563Z,98611.42
2023-05-05T15:22:18.280Z,98609.25
2023-05-05T15:24:21.947Z,98605.14
2023-05-05T15:26:24.854Z,98602.44
2023-05-05T15:28:28.931Z,98602.44
2023-05-05T15:31:04.038Z,98600.27
2023-05-05T15:33:08.662Z,98590.61
2023-05-05T15:35:13.273Z,98586.60
2023-05-05T15:37:18.417Z,98585.88
2023-05-05T15:39:22.068Z,98578.96
2023-05-05T15:41:29.338Z,98577.92
2023-05-05T15:43:36.034Z,98575.49
2023-05-05T15:45:42.593Z,98566.45
2023-05-05T15:47:46.637Z,98570.34
2023-05-05T15:49:52.958Z,98567.73
2023-05-05T15:51:58.617Z,98565.30
2023-05-05T15:54:03.170Z,98558.00
2023-05-05T15:56:07.679Z,98552.17
2023-05-05T15:58:10.525Z,98551.44
2023-05-05T16:00:18.432Z,98552.31
2023-05-05T16:02:22.447Z,98550.52
2023-05-05T16:04:26.755Z,98555.35
2023-05-05T16:06:34.473Z,98554.36
2023-05-05T16:08:37.725Z,98551.24
2023-05-05T16:10:43.188Z,98547.84
2023-05-05T16:12:48.823Z,98547.90
2023-05-05T16:14:53.443Z,98548.98
2023-05-05T16:17:02.227Z,98546.08
2023-05-05T16:19:07.147Z,98544.77
2023-05-05T16:21:11.593Z,98540.82
2023-05-05T16:23:22.075Z,98537.23
2023-05-05T16:25:28.086Z,98534.70
2023-05-05T16:27:32.125Z,98531.27
2023-05-05T16:29:51.182Z,98531.56
2023-05-05T16:31:55.601Z,98530.60
2023-05-05T16:34:00.118Z,98532.70
2023-05-05T16:36:03.355Z,98534.39
2023-05-05T16:38:13.543Z,98526.11
2023-05-05T16:40:17.521Z,98525.23
2023-05-05T16:42:23.094Z,98529.48
2023-05-05T16:44:27.038Z,98527.27
2023-05-05T16:46:29.731Z,98529.12
2023-05-05T16:48:37.866Z,98527.27
2023-05-05T16:50:41.796Z,98525.91
2023-05-05T16:52:48.521Z,98525.84
2023-05-05T16:54:56.024Z,98524.59
2023-05-05T16:56:58.928Z,98524.30
2023-05-05T16:59:02.997Z,98528.86
2023-05-05T17:01:07.175Z,98524.60
2023-05-05T17:05:33.197Z,98520.60
2023-05-05T17:07:49.778Z,98516.80
2023-05-05T17:10:05.775Z,98511.79
2023-05-05T17:12:12.039Z,98515.45
2023-05-05T17:14:16.610Z,98510.05
2023-05-05T17:16:27.921Z,98508.17
2023-05-05T17:18:32.527Z,98508.65
2023-05-05T17:20:36.452Z,98510.44
2023-05-05T17:22:42.040Z,98510.60
2023-05-05T17:24:48.528Z,98508.04
2023-05-05T17:26:51.847Z,98511.45
2023-05-05T17:28:58.393Z,98511.92
2023-05-05T17:31:04.991Z,98511.86
2023-05-05T17:33:11.562Z,98511.63
2023-05-05T17:35:17.374Z,98515.96
2023-05-05T17:37:22.706Z,98518.20
2023-05-05T17:39:26.506Z,98521.30
2023-05-05T17:41:30.116Z,98524.56
2023-05-05T17:43:35.468Z,98526.89
2023-05-05T17:45:43.193Z,98525.11
2023-05-05T17:47:48.602Z,98526.89
2023-05-05T17:50:01.833Z,98523.31
2023-05-05T17:52:07.476Z,98517.69
2023-05-05T17:54:11.282Z,98517.73
2023-05-05T17:56:21.107Z,98518.04
2023-05-05T17:58:26.251Z,98517.76
2023-05-05T18:00:32.098Z,98517.73
2023-05-05T18:02:39.550Z,98517.54
2023-05-05T18:04:43.662Z,98518.95
2023-05-05T18:06:47.363Z,98516.65
2023-05-05T18:08:55.963Z,98521.89
2023-05-05T18:11:01.844Z,98527.49
2023-05-05T18:13:05.127Z,98536.16
2023-05-05T18:15:09.801Z,98549.80
2023-05-05T18:17:15.233Z,98573.95
2023-05-05T18:19:45.311Z,98566.03
2023-05-05T18:21:54.527Z,98566.70
2023-05-05T18:24:07.624Z,98577.65
2023-05-05T18:26:20.960Z,98592.72
2023-05-05T18:28:33.315Z,98603.26
2023-05-05T18:30:39.853Z,98609.45
2023-05-05T18:32:43.951Z,98613.05
2023-05-05T18:34:49.182Z,98620.98
2023-05-05T18:36:55.474Z,98613.14
2023-05-05T18:39:06.933Z,98598.87
2023-05-05T18:41:09.929Z,98584.98
2023-05-05T18:43:13.162Z,98580.23
2023-05-05T18:45:17.286Z,98579.52
2023-05-05T18:47:21.417Z,98581.15
2023-05-05T18:49:26.506Z,98585.42
2023-05-05T18:51:32.291Z,98591.12
2023-05-05T18:53:41.528Z,98584.91
2023-05-05T18:55:50.561Z,98582.32
2023-05-05T18:57:57.047Z,98588.91
2023-05-05T19:00:02.683Z,98602.81
2023-05-05T19:02:06.595Z,98606.80
2023-05-05T19:04:22.639Z,98610.05
2023-05-05T19:06:34.346Z,98601.39
2023-05-05T19:08:39.154Z,98609.92
2023-05-05T19:10:48.224Z,98605.50
2023-05-05T19:12:53.173Z,98609.14
2023-05-05T19:14:57.193Z,98611.13
2023-05-05T19:17:14.656Z,98614.38
2023-05-05T19:19:19.498Z,98617.20
2023-05-05T19:21:23.264Z,98617.39
2023-05-05T19:23:28.213Z,98618.02
2023-05-05T19:25:32.991Z,98621.39
2023-05-05T19:27:38.026Z,98618.50
2023-05-05T19:29:56.498Z,98621.89
2023-05-05T19:32:00.275Z,98624.27
2023-05-05T19:34:05.178Z,98629.44
2023-05-05T19:36:13.130Z,98629.33
2023-05-05T19:38:19.604Z,98626.21
2023-05-05T19:40:23.429Z,98629.44
2023-05-05T19:42:32.641Z,98631.50
2023-05-05T19:44:37.741Z,98638.77
2023-05-05T19:46:42.960Z,98641.31
2023-05-05T19:48:47.228Z,98646.08
2023-05-05T19:50:50.929Z,98654.55
2023-05-05T19:52:59.792Z,98651.48
2023-05-05T19:55:03.105Z,98652.77
2023-05-05T19:57:08.792Z,98655.58
2023-05-05T19:59:22.013Z,98658.64
2023-05-05T20:01:25.381Z,98656.98
2023-05-05T20:03:30.017Z,98660.00
2023-05-05T20:05:33.985Z,98659.09
2023-05-05T20:08:01.153Z,98659.15
2023-05-05T20:10:09.553Z,98666.71
2023-05-05T20:12:22.189Z,98667.16
2023-05-05T20:14:26.807Z,98667.58
2023-05-05T20:16:33.726Z,98666.11
2023-05-05T20:18:40.425Z,98670.31
2023-05-05T20:20:45.807Z,98669.21
2023-05-05T20:22:50.786Z,98668.20
2023-05-05T20:24:54.792Z,98664.36
2023-05-05T20:26:58.810Z,98655.57
2023-05-05T20:29:06.534Z,98652.18
2023-05-05T20:31:16.067Z,98646.31
2023-05-05T20:33:21.901Z,98643.38
2023-05-05T20:35:32.729Z,98644.98
2023-05-05T20:37:41.816Z,98642.99
2023-05-05T20:39:44.769Z,98644.38
2023-05-05T20:41:49.896Z,98642.50
2023-05-05T20:44:03.827Z,98642.07
2023-05-05T20:46:13.106Z,98641.98
2023-05-05T20:48:16.259Z,98639.90
2023-05-05T20:50:21.447Z,98637.68
2023-05-05T20:52:24.155Z,98636.82
2023-05-05T20:54:33.980Z,98642.98
2023-05-05T20:56:39.393Z,98649.10
2023-05-05T20:58:43.518Z,98655.71
2023-05-05T21:00:52.401Z,98659.34
2023-05-05T21:03:03.244Z,98669.35
2023-05-05T21:05:09.719Z,98674.23
2023-05-05T21:07:13.418Z,98674.98
2023-05-05T21:09:22.248Z,98674.30
2023-05-05T21:11:27.839Z,98672.70
2023-05-05T21:13:33.436Z,98673.70
2023-05-05T21:15:38.066Z,98673.81
2023-05-05T21:17:45.067Z,98672.30
2023-05-05T21:19:52.392Z,98668.42
2023-05-05T21:21:59.586Z,98661.95
2023-05-05T21:24:07.748Z,98662.39
2023-05-05T21:26:17.022Z,98667.14
2023-05-05T21:28:22.327Z,98668.17
2023-05-05T21:30:26.056Z,98667.16
2023-05-05T21:32:30.666Z,98670.14
2023-05-05T21:34:33.869Z,98669.58
2023-05-05T21:36:41.243Z,98672.36
2023-05-05T21:38:46.785Z,98668.22
2023-05-05T21:40:58.257Z,98665.87
2023-05-05T21:43:15.907Z,98667.20
2023-05-05T21:45:18.909Z,98667.75
2023-05-05T21:47:28.868Z,98665.48
2023-05-05T21:49:33.400Z,98669.19
2023-05-05T21:51:38.453Z,98667.94
2023-05-05T21:53:45.221Z,98664.90
2023-05-05T21:55:50.478Z,98657.64
2023-05-05T21:57:55.904Z,98652.59
2023-05-05T22:00:01.103Z,98649.62
2023-05-05T22:02:08.373Z,98649.37
2023-05-05T22:04:19.466Z,98647.40
2023-05-05T22:06:24.752Z,98644.41
2023-05-05T22:08:29.667Z,98641.54
2023-05-05T22:10:34.914Z,98639.44
2023-05-05T22:12:44.043Z,98642.44
2023-05-05T22:14:48.728Z,98638.83
2023-05-05T22:17:43.445Z,98639.27
2023-05-05T22:19:47.372Z,98642.79
2023-05-05T22:21:53.899Z,98636.45
2023-05-05T22:24:00.350Z,98635.77
2023-05-05T22:26:04.963Z,98635.68
2023-05-05T22:28:10.341Z,98634.45
2023-05-05T22:30:15.318Z,98635.21
2023-05-05T22:32:24.551Z,98640.84
2023-05-05T22:34:31.460Z,98637.33
2023-05-05T22:36:36.912Z,98640.46
2023-05-05T22:38:40.402Z,98640.88
2023-05-05T22:40:45.089Z,98636.45
2023-05-05T22:42:50.155Z,98637.59
2023-05-05T22:44:52.944Z,98633.64
2023-05-05T22:46:57.562Z,98633.95
2023-05-05T22:49:03.013Z,98631.66
2023-05-05T22:51:09.061Z,98638.99
2023-05-05T22:53:30.889Z,98641.91
2023-05-05T22:55:35.125Z,98645.98
2023-05-05T22:57:41.074Z,98649.35
2023-05-05T22:59:46.374Z,98647.22
2023-05-05T23:01:51.456Z,98644.95
2023-05-05T23:04:03.718Z,98645.09
2023-05-05T23:06:06.727Z,98640.98
2023-05-05T23:08:09.985Z,98638.83
2023-05-05T23:10:13.078Z,98635.60
2023-05-05T23:12:16.991Z,98639.39
2023-05-05T23:14:20.384Z,98636.83
2023-05-05T23:16:23.663Z,98633.25
2023-05-05T23:18:26.432Z,98633.30
2023-05-05T23:20:30.327Z,98628.77
2023-05-05T23:22:35.141Z,98633.30
2023-05-05T23:24:37.747Z,98631.95
2023-05-05T23:26:40.707Z,98632.77
2023-05-05T23:28:45.103Z,98633.11
2023-05-05T23:30:52.821Z,98631.46
2023-05-05T23:33:02.246Z,98626.88
2023-05-05T23:35:07.554Z,98629.58
2023-05-05T23:37:13.966Z,98626.11
2023-05-05T23:39:20.910Z,98633.92
2023-05-05T23:41:24.672Z,98633.87
2023-05-05T23:43:40.516Z,98639.51
2023-05-05T23:45:45.180Z,98642.77
2023-05-05T23:47:51.137Z,98643.83
2023-05-05T23:49:56.824Z,98643.64
2023-05-05T23:52:01.493Z,98642.20
2023-05-05T23:54:10.065Z,98648.00
2023-05-05T23:56:13.156Z,98646.00
2023-05-05T23:58:18.208Z,98651.69
